createdAt,value
2022-08-19T00:01:13.561Z,96955.81
2022-08-19T00:06:18.896Z,96956.31
2022-08-19T00:11:25.764Z,96942.78
2022-08-19T00:16:31.269Z,96942.63
2022-08-19T00:21:40.605Z,96940.94
2022-08-19T00:26:45.676Z,96916.44
2022-08-19T00:31:53.983Z,96908.16
2022-08-19T00:36:58.395Z,96896.97
2022-08-19T00:42:02.198Z,96896.78
2022-08-19T00:47:07.639Z,96909.00
2022-08-19T00:52:23.217Z,96908.34
2022-08-19T00:57:32.852Z,96917.53
2022-08-19T01:02:37.970Z,96901.91
2022-08-19T01:07:43.176Z,96909.28
2022-08-19T01:12:47.413Z,96898.78
2022-08-19T01:17:53.975Z,96898.94
2022-08-19T01:23:00.906Z,96886.47
2022-08-19T01:28:09.228Z,96884.53
2022-08-19T01:33:15.829Z,96884.00
2022-08-19T01:38:26.562Z,96884.19
2022-08-19T01:43:30.480Z,96907.81
2022-08-19T01:48:39.522Z,96903.84
2022-08-19T01:53:44.837Z,96883.25
2022-08-19T01:58:54.300Z,96883.38
2022-08-19T02:03:57.998Z,96871.34
2022-08-19T02:09:03.371Z,96862.47
2022-08-19T02:14:09.390Z,96864.50
2022-08-19T02:19:13.085Z,96868.06
2022-08-19T02:24:18.226Z,96870.38
2022-08-19T02:29:22.011Z,96863.84
2022-08-19T02:34:26.280Z,96860.03
2022-08-19T02:39:31.200Z,96858.72
2022-08-19T02:44:34.806Z,96861.75
2022-08-19T02:49:38.521Z,96863.72
2022-08-19T02:54:43.703Z,96863.78
2022-08-19T02:59:47.336Z,96860.44
2022-08-19T03:04:50.965Z,96870.81
2022-08-19T03:09:55.943Z,96876.56
2022-08-19T03:14:59.493Z,96890.34
2022-08-19T03:20:03.434Z,96905.66
2022-08-19T03:25:09.261Z,96902.84
2022-08-19T03:30:14.387Z,96908.25
2022-08-19T03:35:24.093Z,96925.19
2022-08-19T03:40:31.055Z,96922.91
2022-08-19T03:45:34.974Z,96927.56
2022-08-19T03:50:41.215Z,96927.47
2022-08-19T03:55:46.224Z,96938.03
2022-08-19T04:00:50.074Z,96943.44
2022-08-19T04:05:54.571Z,96946.34
2022-08-19T04:10:59.517Z,96937.63
2022-08-19T04:16:03.211Z,96930.06
2022-08-19T04:21:07.602Z,96929.09
2022-08-19T04:26:16.670Z,96928.72
2022-08-19T04:31:22.587Z,96930.44
2022-08-19T04:36:28.580Z,96929.19
2022-08-19T04:41:51.206Z,96928.09
2022-08-19T04:46:55.321Z,96927.41
2022-08-19T04:51:59.049Z,96936.78
2022-08-19T04:57:06.177Z,96927.59
2022-08-19T05:02:11.028Z,96927.53
2022-08-19T05:07:14.720Z,96933.25
2022-08-19T05:12:20.123Z,96933.22
2022-08-19T05:17:27.659Z,96938.78
2022-08-19T05:22:35.762Z,96947.16
2022-08-19T05:27:40.857Z,96946.00
2022-08-19T05:32:45.003Z,96940.16
2022-08-19T05:37:49.026Z,96939.75
2022-08-19T05:42:57.899Z,96947.25
2022-08-19T05:48:01.422Z,96946.91
2022-08-19T05:53:05.219Z,96960.03
2022-08-19T05:58:10.191Z,96961.41
2022-08-19T06:03:13.852Z,96972.09
2022-08-19T06:08:19.540Z,96983.34
2022-08-19T06:13:25.516Z,97000.81
2022-08-19T06:18:30.463Z,96990.44
2022-08-19T06:23:35.920Z,96995.81
2022-08-19T06:28:43.698Z,97005.53
2022-08-19T06:33:47.439Z,97023.00
2022-08-19T06:38:54.106Z,97031.06
2022-08-19T06:43:59.534Z,97041.97
2022-08-19T06:49:03.918Z,97036.91
2022-08-19T06:54:19.183Z,97051.22
2022-08-19T06:59:28.203Z,97049.84
2022-08-19T07:04:34.849Z,97051.97
2022-08-19T07:09:41.520Z,97053.06
2022-08-19T07:14:50.415Z,97061.06
2022-08-19T07:19:56.474Z,97062.72
2022-08-19T07:25:01.825Z,97052.94
2022-08-19T07:30:11.702Z,97057.25
2022-08-19T07:35:16.630Z,97063.94
2022-08-19T07:40:22.014Z,97070.41
2022-08-19T07:45:30.211Z,97071.59
2022-08-19T07:50:35.464Z,97080.16
2022-08-19T07:55:43.927Z,97077.66
2022-08-19T08:00:53.232Z,97093.16
2022-08-19T08:06:15.026Z,97105.56
2022-08-19T08:11:24.026Z,97098.31
2022-08-19T08:16:32.590Z,97099.59
2022-08-19T08:21:36.962Z,97107.91
2022-08-19T08:26:46.840Z,97112.13
2022-08-19T08:32:00.155Z,97110.91
2022-08-19T08:37:04.651Z,97121.16
2022-08-19T08:42:17.498Z,97126.41
2022-08-19T08:47:25.342Z,97118.66
2022-08-19T08:52:33.362Z,97126.78
2022-08-19T08:57:43.701Z,97140.78
2022-08-19T09:02:52.598Z,97140.47
2022-08-19T09:08:06.006Z,97138.91
2022-08-19T09:13:23.293Z,97144.16
2022-08-19T09:18:29.759Z,97125.47
2022-08-19T09:23:33.726Z,97125.50
2022-08-19T09:28:40.262Z,97119.34
2022-08-19T09:33:49.742Z,97116.94
2022-08-19T09:38:55.913Z,97110.28
2022-08-19T09:44:01.139Z,97111.72
2022-08-19T09:49:07.445Z,97103.44
2022-08-19T09:54:11.431Z,97107.81
2022-08-19T09:59:15.298Z,97119.19
2022-08-19T10:04:22.313Z,97108.31
2022-08-19T10:09:34.364Z,97109.81
2022-08-19T10:14:39.310Z,97105.34
2022-08-19T10:19:55.373Z,97104.97
2022-08-19T10:25:00.028Z,97112.84
2022-08-19T10:30:04.172Z,97126.56
2022-08-19T10:35:16.045Z,97122.41
2022-08-19T10:40:25.926Z,97116.34
2022-08-19T10:45:29.727Z,97120.16
2022-08-19T10:50:52.324Z,97114.72
2022-08-19T10:56:13.520Z,97111.84
2022-08-19T11:01:17.394Z,97115.53
2022-08-19T11:06:22.590Z,97116.63
2022-08-19T11:11:26.339Z,97124.78
2022-08-19T11:16:31.075Z,97125.91
2022-08-19T11:21:38.803Z,97130.91
2022-08-19T11:26:44.009Z,97139.00
2022-08-19T11:31:50.387Z,97140.19
2022-08-19T11:36:55.643Z,97138.84
2022-08-19T11:42:02.035Z,97140.06
2022-08-19T11:47:09.126Z,97140.28
2022-08-19T11:52:14.636Z,97136.72
2022-08-19T11:57:18.499Z,97125.00
2022-08-19T12:02:22.681Z,97112.31
2022-08-19T12:07:27.732Z,97105.03
2022-08-19T12:12:31.282Z,97084.16
2022-08-19T12:17:35.086Z,97093.34
2022-08-19T12:22:40.401Z,97086.81
2022-08-19T12:27:49.637Z,97087.41
2022-08-19T12:32:56.268Z,97090.66
2022-08-19T12:38:03.851Z,97066.97
2022-08-19T12:43:07.818Z,97059.94
2022-08-19T12:48:34.374Z,97058.56
2022-08-19T12:53:39.264Z,97050.78
2022-08-19T12:58:49.038Z,97061.44
2022-08-19T13:03:55.626Z,97072.59
2022-08-19T13:09:00.736Z,97075.84
2022-08-19T13:14:06.898Z,97085.75
2022-08-19T13:19:11.750Z,97082.63
2022-08-19T13:24:16.672Z,97091.38
2022-08-19T13:29:35.422Z,97073.03
2022-08-19T13:34:39.363Z,97083.34
2022-08-19T13:39:46.098Z,97087.09
2022-08-19T13:44:49.840Z,97073.09
2022-08-19T13:49:53.855Z,97090.59
2022-08-19T13:54:59.743Z,97094.81
2022-08-19T14:00:11.846Z,97100.28
2022-08-19T14:05:17.728Z,97095.72
2022-08-19T14:10:23.881Z,97090.31
2022-08-19T14:15:29.148Z,97090.66
2022-08-19T14:20:32.785Z,97094.50
2022-08-19T14:25:37.974Z,97095.78
2022-08-19T14:30:41.799Z,97089.63
2022-08-19T14:35:46.081Z,97079.44
2022-08-19T14:40:53.310Z,97076.94
2022-08-19T14:45:58.432Z,97071.88
2022-08-19T14:51:02.574Z,97066.75
2022-08-19T14:56:11.820Z,97064.38
2022-08-19T15:01:16.301Z,97067.91
2022-08-19T15:06:19.947Z,97053.16
2022-08-19T15:11:28.900Z,97045.97
2022-08-19T15:16:32.461Z,97037.91
2022-08-19T15:21:37.306Z,97036.31
2022-08-19T15:26:43.755Z,97031.72
2022-08-19T15:31:47.401Z,97023.69
2022-08-19T15:36:53.055Z,97025.03
2022-08-19T15:42:00.564Z,97043.84
2022-08-19T15:47:05.328Z,97031.13
2022-08-19T15:52:09.155Z,97024.34
2022-08-19T15:57:31.497Z,97037.09
2022-08-19T16:02:53.596Z,97038.13
2022-08-19T16:07:57.710Z,97025.91
2022-08-19T16:13:02.647Z,97034.03
2022-08-19T16:18:06.314Z,97048.47
2022-08-19T16:23:10.288Z,97038.53
2022-08-19T16:28:15.475Z,97055.66
2022-08-19T16:33:22.829Z,97041.84
2022-08-19T16:38:27.672Z,97036.03
2022-08-19T16:43:32.633Z,97034.59
2022-08-19T16:48:43.049Z,97035.22
2022-08-19T16:53:46.787Z,97046.16
2022-08-19T16:58:51.880Z,97059.78
2022-08-19T17:03:55.854Z,97060.63
2022-08-19T17:09:01.192Z,97061.59
2022-08-19T17:14:07.263Z,97053.84
2022-08-19T17:19:10.778Z,97054.25
2022-08-19T17:24:14.413Z,97054.72
2022-08-19T17:29:19.213Z,97043.16
2022-08-19T17:34:22.876Z,97053.69
2022-08-19T17:39:26.475Z,97053.88
2022-08-19T17:44:33.197Z,97044.06
2022-08-19T17:49:37.554Z,97043.97
2022-08-19T17:54:40.959Z,97045.25
2022-08-19T17:59:46.076Z,97041.31
2022-08-19T18:04:50.234Z,97056.88
2022-08-19T18:09:54.987Z,97045.88
2022-08-19T18:15:04.088Z,97056.66
2022-08-19T18:20:12.383Z,97056.81
2022-08-19T18:25:19.255Z,97062.38
2022-08-19T18:30:25.938Z,97061.56
2022-08-19T18:35:31.028Z,97065.84
2022-08-19T18:41:03.926Z,97079.38
2022-08-19T18:46:26.300Z,97075.91
2022-08-19T18:51:34.795Z,97079.19
2022-08-19T18:56:42.408Z,97084.06
2022-08-19T19:01:50.794Z,97097.97
2022-08-19T19:06:58.038Z,97103.94
2022-08-19T19:12:04.388Z,97109.28
2022-08-19T19:17:13.000Z,97133.75
2022-08-19T19:22:19.930Z,97135.38
2022-08-19T19:27:23.542Z,97140.19
2022-08-19T19:32:36.978Z,97136.81
2022-08-19T19:37:45.213Z,97130.56
2022-08-19T19:42:49.075Z,97139.72
2022-08-19T19:47:54.169Z,97145.47
2022-08-19T19:52:58.576Z,97135.88
2022-08-19T19:58:03.003Z,97131.22
2022-08-19T20:03:09.447Z,97140.72
2022-08-19T20:08:30.436Z,97145.72
2022-08-19T20:13:35.726Z,97151.66
2022-08-19T20:18:41.278Z,97169.44
2022-08-19T20:23:45.060Z,97180.69
2022-08-19T20:29:13.874Z,97184.81
2022-08-19T20:34:34.812Z,97176.41
2022-08-19T20:39:39.042Z,97187.66
2022-08-19T20:44:42.556Z,97193.16
2022-08-19T20:49:47.589Z,97198.09
2022-08-19T20:54:51.228Z,97192.81
2022-08-19T20:59:54.982Z,97182.41
2022-08-19T21:05:00.270Z,97183.41
2022-08-19T21:10:04.811Z,97190.94
2022-08-19T21:15:09.346Z,97187.06
2022-08-19T21:20:14.600Z,97202.03
2022-08-19T21:25:19.236Z,97213.69
2022-08-19T21:30:23.205Z,97198.25
2022-08-19T21:35:28.958Z,97205.84
2022-08-19T21:40:32.678Z,97205.59
2022-08-19T21:45:36.455Z,97201.41
2022-08-19T21:50:41.614Z,97192.28
2022-08-19T21:55:52.771Z,97186.19
2022-08-19T22:00:57.005Z,97191.09
2022-08-19T22:06:02.057Z,97184.47
2022-08-19T22:11:06.033Z,97187.81
2022-08-19T22:16:11.384Z,97194.22
2022-08-19T22:21:20.162Z,97196.47
2022-08-19T22:26:40.995Z,97190.13
2022-08-19T22:31:44.714Z,97197.75
2022-08-19T22:36:49.774Z,97200.44
2022-08-19T22:41:53.706Z,97206.47
2022-08-19T22:46:57.275Z,97192.09
2022-08-19T22:52:18.443Z,97196.28
2022-08-19T22:57:23.453Z,97201.16
2022-08-19T23:02:29.817Z,97200.81
2022-08-19T23:07:35.266Z,97193.91
2022-08-19T23:12:41.836Z,97188.06
2022-08-19T23:17:45.643Z,97196.31
2022-08-19T23:22:50.994Z,97202.84
2022-08-19T23:28:12.385Z,97199.44
2022-08-19T23:33:21.657Z,97190.91
2022-08-19T23:38:32.322Z,97194.00
2022-08-19T23:43:37.499Z,97190.38
2022-08-19T23:48:42.960Z,97188.28
2022-08-19T23:53:47.881Z,97193.56
2022-08-19T23:58:51.470Z,97192.66
